1  °C
Temperature
1  °C
  Dewpoint
   Humidity
Temp | Dewpoint | Humidity
10  km/h
Wind Speed
6  mph
Wind Speed
5  kts
Wind Speed
240°
West South
West

Wind Speed
Mostly Cloudy
Conditions
Pressure 1036.62 (hPa) - 30.61 (in)
Visibility 15.0 (mi) - 24.1 (km)

Current Conditions
CYYJ
Location 6km (3.2mi)
Metar :CYYJ 251100Z 24005KT 15SM BKN053 BKN072 01/01 A3061 RMK SC7AC1 AC TR SLP368
Tue 25th February 03:00 am

Airport
  Metar Aviation API Data Provided by https://www.checkwx.com/ CSS/SVG/PHP scripts by weather34.com © 2015-2020